sensor_id;sensor_type;location;lat;lon;timestamp;P1;durP1;ratioP1;P2;durP2;ratioP2
8895;SDS011;4484;48.928;10.066;2023-07-02T00:00:06;1.73;;;1.63;;
8895;SDS011;4484;48.928;10.066;2023-07-02T00:02:37;2.30;;;2.10;;
8895;SDS011;4484;48.928;10.066;2023-07-02T00:05:05;4.87;;;2.07;;
8895;SDS011;4484;48.928;10.066;2023-07-02T00:07:32;4.63;;;2.10;;
8895;SDS011;4484;48.928;10.066;2023-07-02T00:10:01;2.23;;;2.03;;
8895;SDS011;4484;48.928;10.066;2023-07-02T00:12:28;2.23;;;1.97;;
8895;SDS011;4484;48.928;10.066;2023-07-02T00:14:55;3.50;;;2.20;;
8895;SDS011;4484;48.928;10.066;2023-07-02T00:17:22;2.73;;;2.50;;
8895;SDS011;4484;48.928;10.066;2023-07-02T00:19:49;3.33;;;2.50;;
8895;SDS011;4484;48.928;10.066;2023-07-02T00:22:18;2.40;;;2.20;;
8895;SDS011;4484;48.928;10.066;2023-07-02T00:24:45;2.53;;;2.10;;
8895;SDS011;4484;48.928;10.066;2023-07-02T00:27:12;3.20;;;2.40;;
8895;SDS011;4484;48.928;10.066;2023-07-02T00:29:39;3.10;;;2.30;;
8895;SDS011;4484;48.928;10.066;2023-07-02T00:32:06;2.67;;;2.07;;
8895;SDS011;4484;48.928;10.066;2023-07-02T00:34:33;4.17;;;2.33;;
8895;SDS011;4484;48.928;10.066;2023-07-02T00:36:59;4.30;;;2.13;;
8895;SDS011;4484;48.928;10.066;2023-07-02T00:39:26;3.60;;;2.33;;
8895;SDS011;4484;48.928;10.066;2023-07-02T00:41:53;3.17;;;2.10;;
8895;SDS011;4484;48.928;10.066;2023-07-02T00:44:21;3.07;;;2.30;;
8895;SDS011;4484;48.928;10.066;2023-07-02T00:46:49;3.17;;;2.20;;
8895;SDS011;4484;48.928;10.066;2023-07-02T00:49:17;3.80;;;2.10;;
8895;SDS011;4484;48.928;10.066;2023-07-02T00:51:45;2.20;;;2.00;;
8895;SDS011;4484;48.928;10.066;2023-07-02T00:54:11;2.23;;;1.90;;
8895;SDS011;4484;48.928;10.066;2023-07-02T00:56:38;2.40;;;1.97;;
8895;SDS011;4484;48.928;10.066;2023-07-02T00:59:05;4.60;;;1.97;;
8895;SDS011;4484;48.928;10.066;2023-07-02T01:01:33;4.33;;;2.13;;
8895;SDS011;4484;48.928;10.066;2023-07-02T01:04:06;2.30;;;2.10;;
8895;SDS011;4484;48.928;10.066;2023-07-02T01:06:38;3.80;;;2.10;;
8895;SDS011;4484;48.928;10.066;2023-07-02T01:09:08;2.00;;;1.80;;
8895;SDS011;4484;48.928;10.066;2023-07-02T01:11:42;3.50;;;1.97;;
8895;SDS011;4484;48.928;10.066;2023-07-02T01:14:13;2.37;;;1.90;;
8895;SDS011;4484;48.928;10.066;2023-07-02T01:16:44;2.87;;;2.20;;
8895;SDS011;4484;48.928;10.066;2023-07-02T01:19:17;2.30;;;1.73;;
8895;SDS011;4484;48.928;10.066;2023-07-02T01:21:52;3.43;;;2.17;;
8895;SDS011;4484;48.928;10.066;2023-07-02T01:24:19;2.93;;;2.37;;
8895;SDS011;4484;48.928;10.066;2023-07-02T01:26:48;3.07;;;2.27;;
8895;SDS011;4484;48.928;10.066;2023-07-02T01:29:16;2.10;;;1.90;;
8895;SDS011;4484;48.928;10.066;2023-07-02T01:31:45;4.40;;;2.30;;
8895;SDS011;4484;48.928;10.066;2023-07-02T01:34:13;5.40;;;2.30;;
8895;SDS011;4484;48.928;10.066;2023-07-02T01:36:40;3.17;;;2.30;;
8895;SDS011;4484;48.928;10.066;2023-07-02T01:39:07;2.30;;;2.00;;
8895;SDS011;4484;48.928;10.066;2023-07-02T01:41:37;4.63;;;2.20;;
8895;SDS011;4484;48.928;10.066;2023-07-02T01:44:11;3.33;;;2.50;;
8895;SDS011;4484;48.928;10.066;2023-07-02T01:46:38;3.53;;;2.30;;
8895;SDS011;4484;48.928;10.066;2023-07-02T01:49:05;3.07;;;2.33;;
8895;SDS011;4484;48.928;10.066;2023-07-02T01:51:32;2.70;;;2.50;;
8895;SDS011;4484;48.928;10.066;2023-07-02T01:54:00;2.43;;;2.23;;
8895;SDS011;4484;48.928;10.066;2023-07-02T01:56:27;2.53;;;2.27;;
8895;SDS011;4484;48.928;10.066;2023-07-02T01:58:54;3.60;;;2.47;;
8895;SDS011;4484;48.928;10.066;2023-07-02T02:01:21;4.33;;;2.13;;
8895;SDS011;4484;48.928;10.066;2023-07-02T02:03:48;5.20;;;3.07;;
8895;SDS011;4484;48.928;10.066;2023-07-02T02:06:16;3.63;;;2.70;;
8895;SDS011;4484;48.928;10.066;2023-07-02T02:08:44;3.17;;;2.47;;
8895;SDS011;4484;48.928;10.066;2023-07-02T02:11:11;3.50;;;2.30;;
8895;SDS011;4484;48.928;10.066;2023-07-02T02:13:38;2.50;;;2.20;;
8895;SDS011;4484;48.928;10.066;2023-07-02T02:16:05;4.17;;;2.30;;
8895;SDS011;4484;48.928;10.066;2023-07-02T02:18:32;2.37;;;2.17;;
8895;SDS011;4484;48.928;10.066;2023-07-02T02:20:59;3.77;;;2.60;;
8895;SDS011;4484;48.928;10.066;2023-07-02T02:23:26;6.27;;;2.13;;
8895;SDS011;4484;48.928;10.066;2023-07-02T02:25:53;2.83;;;2.60;;
8895;SDS011;4484;48.928;10.066;2023-07-02T02:28:20;3.30;;;2.63;;
8895;SDS011;4484;48.928;10.066;2023-07-02T02:30:47;7.17;;;2.43;;
8895;SDS011;4484;48.928;10.066;2023-07-02T02:33:14;3.70;;;2.50;;
8895;SDS011;4484;48.928;10.066;2023-07-02T02:35:43;3.77;;;2.80;;
8895;SDS011;4484;48.928;10.066;2023-07-02T02:38:10;3.37;;;2.73;;
8895;SDS011;4484;48.928;10.066;2023-07-02T02:40:37;3.60;;;2.83;;
8895;SDS011;4484;48.928;10.066;2023-07-02T02:43:07;3.57;;;2.60;;
8895;SDS011;4484;48.928;10.066;2023-07-02T02:45:36;5.23;;;2.60;;
8895;SDS011;4484;48.928;10.066;2023-07-02T02:48:03;2.90;;;2.57;;
8895;SDS011;4484;48.928;10.066;2023-07-02T02:50:30;3.73;;;2.83;;
8895;SDS011;4484;48.928;10.066;2023-07-02T02:52:56;2.70;;;2.47;;
8895;SDS011;4484;48.928;10.066;2023-07-02T02:55:23;2.63;;;2.20;;
8895;SDS011;4484;48.928;10.066;2023-07-02T02:57:50;3.57;;;2.50;;
8895;SDS011;4484;48.928;10.066;2023-07-02T03:00:17;5.47;;;3.00;;
8895;SDS011;4484;48.928;10.066;2023-07-02T03:02:44;3.03;;;2.47;;
8895;SDS011;4484;48.928;10.066;2023-07-02T03:05:11;3.97;;;2.50;;
8895;SDS011;4484;48.928;10.066;2023-07-02T03:07:39;3.30;;;3.00;;
8895;SDS011;4484;48.928;10.066;2023-07-02T03:10:06;3.17;;;2.50;;
8895;SDS011;4484;48.928;10.066;2023-07-02T03:12:33;2.77;;;2.40;;
8895;SDS011;4484;48.928;10.066;2023-07-02T03:15:00;3.13;;;2.67;;
8895;SDS011;4484;48.928;10.066;2023-07-02T03:17:27;3.30;;;2.73;;
8895;SDS011;4484;48.928;10.066;2023-07-02T03:19:54;8.23;;;2.97;;
8895;SDS011;4484;48.928;10.066;2023-07-02T03:22:21;5.47;;;2.60;;
8895;SDS011;4484;48.928;10.066;2023-07-02T03:24:48;3.00;;;2.70;;
8895;SDS011;4484;48.928;10.066;2023-07-02T03:27:16;5.10;;;3.10;;
8895;SDS011;4484;48.928;10.066;2023-07-02T03:29:43;4.37;;;2.77;;
8895;SDS011;4484;48.928;10.066;2023-07-02T03:32:10;3.53;;;2.80;;
8895;SDS011;4484;48.928;10.066;2023-07-02T03:34:36;2.70;;;2.23;;
8895;SDS011;4484;48.928;10.066;2023-07-02T03:37:03;4.27;;;2.57;;
8895;SDS011;4484;48.928;10.066;2023-07-02T03:39:30;4.53;;;2.70;;
8895;SDS011;4484;48.928;10.066;2023-07-02T03:41:57;2.80;;;2.53;;
8895;SDS011;4484;48.928;10.066;2023-07-02T03:44:24;3.70;;;2.77;;
8895;SDS011;4484;48.928;10.066;2023-07-02T03:46:51;7.43;;;2.57;;
8895;SDS011;4484;48.928;10.066;2023-07-02T03:49:17;2.60;;;2.20;;
8895;SDS011;4484;48.928;10.066;2023-07-02T03:51:44;4.20;;;2.63;;
8895;SDS011;4484;48.928;10.066;2023-07-02T03:54:11;3.90;;;2.47;;
8895;SDS011;4484;48.928;10.066;2023-07-02T03:56:38;2.20;;;2.00;;
8895;SDS011;4484;48.928;10.066;2023-07-02T03:59:05;4.90;;;2.70;;
8895;SDS011;4484;48.928;10.066;2023-07-02T04:01:32;2.63;;;2.20;;
8895;SDS011;4484;48.928;10.066;2023-07-02T04:03:59;4.30;;;2.13;;
8895;SDS011;4484;48.928;10.066;2023-07-02T04:06:26;3.87;;;2.27;;
8895;SDS011;4484;48.928;10.066;2023-07-02T04:08:53;6.07;;;2.40;;
8895;SDS011;4484;48.928;10.066;2023-07-02T04:11:19;5.87;;;2.83;;
8895;SDS011;4484;48.928;10.066;2023-07-02T04:13:46;6.47;;;2.40;;
8895;SDS011;4484;48.928;10.066;2023-07-02T04:16:13;5.33;;;2.77;;
8895;SDS011;4484;48.928;10.066;2023-07-02T04:18:40;5.53;;;2.53;;
8895;SDS011;4484;48.928;10.066;2023-07-02T04:21:07;5.47;;;2.87;;
8895;SDS011;4484;48.928;10.066;2023-07-02T04:23:34;7.23;;;2.87;;
8895;SDS011;4484;48.928;10.066;2023-07-02T04:26:01;6.77;;;2.70;;
8895;SDS011;4484;48.928;10.066;2023-07-02T04:28:48;4.93;;;3.10;;
8895;SDS011;4484;48.928;10.066;2023-07-02T04:31:15;6.00;;;3.37;;
8895;SDS011;4484;48.928;10.066;2023-07-02T04:33:42;5.87;;;3.30;;
8895;SDS011;4484;48.928;10.066;2023-07-02T04:36:09;8.13;;;4.17;;
8895;SDS011;4484;48.928;10.066;2023-07-02T04:38:36;8.90;;;4.23;;
8895;SDS011;4484;48.928;10.066;2023-07-02T04:41:05;6.43;;;3.90;;
8895;SDS011;4484;48.928;10.066;2023-07-02T04:43:32;6.67;;;4.17;;
8895;SDS011;4484;48.928;10.066;2023-07-02T04:46:00;6.17;;;3.93;;
8895;SDS011;4484;48.928;10.066;2023-07-02T04:48:27;9.93;;;4.40;;
8895;SDS011;4484;48.928;10.066;2023-07-02T04:50:54;7.03;;;4.20;;
8895;SDS011;4484;48.928;10.066;2023-07-02T04:53:21;7.67;;;4.10;;
8895;SDS011;4484;48.928;10.066;2023-07-02T04:55:48;8.23;;;3.73;;
8895;SDS011;4484;48.928;10.066;2023-07-02T04:58:15;7.00;;;3.53;;
8895;SDS011;4484;48.928;10.066;2023-07-02T05:00:42;9.90;;;4.17;;
8895;SDS011;4484;48.928;10.066;2023-07-02T05:03:09;6.77;;;3.87;;
8895;SDS011;4484;48.928;10.066;2023-07-02T05:05:36;7.13;;;4.10;;
8895;SDS011;4484;48.928;10.066;2023-07-02T05:08:03;12.03;;;4.40;;
8895;SDS011;4484;48.928;10.066;2023-07-02T05:10:32;4.97;;;3.90;;
8895;SDS011;4484;48.928;10.066;2023-07-02T05:12:59;5.67;;;4.00;;
8895;SDS011;4484;48.928;10.066;2023-07-02T05:15:26;6.87;;;3.93;;
8895;SDS011;4484;48.928;10.066;2023-07-02T05:17:53;5.77;;;4.10;;
8895;SDS011;4484;48.928;10.066;2023-07-02T05:20:20;6.97;;;3.63;;
8895;SDS011;4484;48.928;10.066;2023-07-02T05:22:47;7.97;;;4.37;;
8895;SDS011;4484;48.928;10.066;2023-07-02T05:25:14;7.37;;;4.40;;
8895;SDS011;4484;48.928;10.066;2023-07-02T05:27:40;6.33;;;3.77;;
8895;SDS011;4484;48.928;10.066;2023-07-02T05:30:07;7.07;;;4.10;;
8895;SDS011;4484;48.928;10.066;2023-07-02T05:32:35;5.97;;;3.43;;
8895;SDS011;4484;48.928;10.066;2023-07-02T05:35:02;6.07;;;4.00;;
8895;SDS011;4484;48.928;10.066;2023-07-02T05:37:29;5.83;;;3.50;;
8895;SDS011;4484;48.928;10.066;2023-07-02T05:39:56;10.07;;;4.23;;
8895;SDS011;4484;48.928;10.066;2023-07-02T05:42:23;5.47;;;3.77;;
8895;SDS011;4484;48.928;10.066;2023-07-02T05:44:50;5.70;;;4.40;;
8895;SDS011;4484;48.928;10.066;2023-07-02T05:47:16;8.10;;;4.10;;
8895;SDS011;4484;48.928;10.066;2023-07-02T05:49:43;9.63;;;4.13;;
8895;SDS011;4484;48.928;10.066;2023-07-02T05:52:10;8.77;;;4.70;;
8895;SDS011;4484;48.928;10.066;2023-07-02T05:54:40;6.27;;;4.07;;
8895;SDS011;4484;48.928;10.066;2023-07-02T05:57:07;8.20;;;4.67;;
8895;SDS011;4484;48.928;10.066;2023-07-02T05:59:34;9.77;;;4.77;;
8895;SDS011;4484;48.928;10.066;2023-07-02T06:02:01;8.13;;;4.87;;
8895;SDS011;4484;48.928;10.066;2023-07-02T06:04:28;8.70;;;5.10;;
8895;SDS011;4484;48.928;10.066;2023-07-02T06:06:55;8.17;;;4.23;;
8895;SDS011;4484;48.928;10.066;2023-07-02T06:09:22;9.37;;;4.73;;
8895;SDS011;4484;48.928;10.066;2023-07-02T06:11:48;6.93;;;4.77;;
8895;SDS011;4484;48.928;10.066;2023-07-02T06:14:15;10.13;;;4.87;;
8895;SDS011;4484;48.928;10.066;2023-07-02T06:16:42;7.43;;;4.77;;
8895;SDS011;4484;48.928;10.066;2023-07-02T06:19:09;9.67;;;4.77;;
8895;SDS011;4484;48.928;10.066;2023-07-02T06:21:36;6.83;;;4.77;;
8895;SDS011;4484;48.928;10.066;2023-07-02T06:24:03;10.77;;;4.73;;
8895;SDS011;4484;48.928;10.066;2023-07-02T06:26:30;8.80;;;5.67;;
8895;SDS011;4484;48.928;10.066;2023-07-02T06:28:58;13.90;;;5.40;;
8895;SDS011;4484;48.928;10.066;2023-07-02T06:31:25;10.57;;;5.27;;
8895;SDS011;4484;48.928;10.066;2023-07-02T06:33:52;16.23;;;6.10;;
8895;SDS011;4484;48.928;10.066;2023-07-02T06:36:19;14.47;;;5.80;;
8895;SDS011;4484;48.928;10.066;2023-07-02T06:38:46;10.17;;;5.23;;
8895;SDS011;4484;48.928;10.066;2023-07-02T06:41:14;13.40;;;5.67;;
8895;SDS011;4484;48.928;10.066;2023-07-02T06:43:44;8.93;;;5.23;;
8895;SDS011;4484;48.928;10.066;2023-07-02T06:46:11;10.93;;;5.30;;
8895;SDS011;4484;48.928;10.066;2023-07-02T06:48:38;8.50;;;5.20;;
8895;SDS011;4484;48.928;10.066;2023-07-02T06:51:05;11.50;;;4.83;;
8895;SDS011;4484;48.928;10.066;2023-07-02T06:53:34;14.90;;;5.60;;
8895;SDS011;4484;48.928;10.066;2023-07-02T06:56:02;9.33;;;4.80;;
8895;SDS011;4484;48.928;10.066;2023-07-02T06:58:30;8.37;;;5.23;;
8895;SDS011;4484;48.928;10.066;2023-07-02T07:00:57;10.23;;;4.90;;
8895;SDS011;4484;48.928;10.066;2023-07-02T07:03:23;9.53;;;5.57;;
8895;SDS011;4484;48.928;10.066;2023-07-02T07:05:50;9.33;;;5.10;;
8895;SDS011;4484;48.928;10.066;2023-07-02T07:08:17;9.97;;;5.57;;
8895;SDS011;4484;48.928;10.066;2023-07-02T07:10:44;11.43;;;5.20;;
8895;SDS011;4484;48.928;10.066;2023-07-02T07:13:12;11.60;;;5.43;;
8895;SDS011;4484;48.928;10.066;2023-07-02T07:15:39;10.43;;;5.53;;
8895;SDS011;4484;48.928;10.066;2023-07-02T07:18:08;9.03;;;5.63;;
8895;SDS011;4484;48.928;10.066;2023-07-02T07:20:35;13.93;;;6.43;;
8895;SDS011;4484;48.928;10.066;2023-07-02T07:23:05;10.90;;;6.17;;
8895;SDS011;4484;48.928;10.066;2023-07-02T07:25:32;12.30;;;6.47;;
8895;SDS011;4484;48.928;10.066;2023-07-02T07:27:59;12.00;;;6.43;;
8895;SDS011;4484;48.928;10.066;2023-07-02T07:30:26;11.70;;;6.47;;
8895;SDS011;4484;48.928;10.066;2023-07-02T07:32:53;11.53;;;6.37;;
8895;SDS011;4484;48.928;10.066;2023-07-02T07:35:21;10.57;;;6.33;;
8895;SDS011;4484;48.928;10.066;2023-07-02T07:37:48;13.70;;;6.73;;
8895;SDS011;4484;48.928;10.066;2023-07-02T07:40:15;15.87;;;6.90;;
8895;SDS011;4484;48.928;10.066;2023-07-02T07:42:42;16.97;;;7.70;;
8895;SDS011;4484;48.928;10.066;2023-07-02T07:45:10;12.00;;;6.80;;
8895;SDS011;4484;48.928;10.066;2023-07-02T07:47:38;19.97;;;7.40;;
8895;SDS011;4484;48.928;10.066;2023-07-02T07:50:06;14.27;;;6.83;;
8895;SDS011;4484;48.928;10.066;2023-07-02T07:52:37;15.50;;;6.87;;
8895;SDS011;4484;48.928;10.066;2023-07-02T07:55:05;15.83;;;6.90;;
8895;SDS011;4484;48.928;10.066;2023-07-02T07:57:34;11.43;;;6.63;;
8895;SDS011;4484;48.928;10.066;2023-07-02T08:00:05;13.73;;;6.97;;
8895;SDS011;4484;48.928;10.066;2023-07-02T08:02:47;12.37;;;6.70;;
8895;SDS011;4484;48.928;10.066;2023-07-02T08:05:14;11.97;;;7.00;;
8895;SDS011;4484;48.928;10.066;2023-07-02T08:07:41;15.93;;;7.90;;
8895;SDS011;4484;48.928;10.066;2023-07-02T08:10:08;14.27;;;7.70;;
8895;SDS011;4484;48.928;10.066;2023-07-02T08:12:35;13.30;;;6.87;;
8895;SDS011;4484;48.928;10.066;2023-07-02T08:15:03;15.10;;;7.50;;
8895;SDS011;4484;48.928;10.066;2023-07-02T08:17:30;14.83;;;7.00;;
8895;SDS011;4484;48.928;10.066;2023-07-02T08:19:57;15.53;;;7.27;;
8895;SDS011;4484;48.928;10.066;2023-07-02T08:22:24;10.43;;;6.23;;
8895;SDS011;4484;48.928;10.066;2023-07-02T08:24:51;11.70;;;7.20;;
8895;SDS011;4484;48.928;10.066;2023-07-02T08:27:18;13.47;;;8.00;;
8895;SDS011;4484;48.928;10.066;2023-07-02T08:29:49;14.13;;;7.60;;
8895;SDS011;4484;48.928;10.066;2023-07-02T08:32:16;18.20;;;8.27;;
8895;SDS011;4484;48.928;10.066;2023-07-02T08:34:43;13.43;;;7.43;;
8895;SDS011;4484;48.928;10.066;2023-07-02T08:37:10;16.27;;;8.33;;
8895;SDS011;4484;48.928;10.066;2023-07-02T08:39:37;11.93;;;7.37;;
8895;SDS011;4484;48.928;10.066;2023-07-02T08:42:06;13.97;;;7.83;;
8895;SDS011;4484;48.928;10.066;2023-07-02T08:44:33;14.47;;;7.43;;
8895;SDS011;4484;48.928;10.066;2023-07-02T08:47:02;14.63;;;8.17;;
8895;SDS011;4484;48.928;10.066;2023-07-02T08:49:29;12.20;;;7.73;;
8895;SDS011;4484;48.928;10.066;2023-07-02T08:51:56;12.40;;;7.57;;
8895;SDS011;4484;48.928;10.066;2023-07-02T08:54:23;13.47;;;7.93;;
8895;SDS011;4484;48.928;10.066;2023-07-02T08:56:49;12.00;;;7.13;;
8895;SDS011;4484;48.928;10.066;2023-07-02T08:59:16;17.07;;;8.70;;
8895;SDS011;4484;48.928;10.066;2023-07-02T09:01:47;14.10;;;7.83;;
8895;SDS011;4484;48.928;10.066;2023-07-02T09:04:18;16.77;;;7.90;;
8895;SDS011;4484;48.928;10.066;2023-07-02T09:06:47;16.70;;;7.97;;
8895;SDS011;4484;48.928;10.066;2023-07-02T09:09:15;11.47;;;7.13;;
8895;SDS011;4484;48.928;10.066;2023-07-02T09:11:51;13.73;;;7.93;;
8895;SDS011;4484;48.928;10.066;2023-07-02T09:14:24;13.53;;;8.13;;
8895;SDS011;4484;48.928;10.066;2023-07-02T09:17:08;12.70;;;7.40;;
8895;SDS011;4484;48.928;10.066;2023-07-02T09:19:36;13.30;;;8.00;;
8895;SDS011;4484;48.928;10.066;2023-07-02T09:22:14;11.77;;;7.17;;
8895;SDS011;4484;48.928;10.066;2023-07-02T09:24:42;15.13;;;7.90;;
8895;SDS011;4484;48.928;10.066;2023-07-02T09:27:21;14.10;;;8.23;;
8895;SDS011;4484;48.928;10.066;2023-07-02T09:29:51;14.00;;;7.70;;
8895;SDS011;4484;48.928;10.066;2023-07-02T09:32:24;13.00;;;8.03;;
8895;SDS011;4484;48.928;10.066;2023-07-02T09:34:54;15.27;;;8.57;;
8895;SDS011;4484;48.928;10.066;2023-07-02T09:37:24;13.93;;;8.17;;
8895;SDS011;4484;48.928;10.066;2023-07-02T09:39:51;16.13;;;8.50;;
8895;SDS011;4484;48.928;10.066;2023-07-02T09:42:21;16.37;;;9.23;;
8895;SDS011;4484;48.928;10.066;2023-07-02T09:44:49;15.90;;;8.23;;
8895;SDS011;4484;48.928;10.066;2023-07-02T09:47:18;14.57;;;8.70;;
8895;SDS011;4484;48.928;10.066;2023-07-02T09:49:54;22.87;;;8.37;;
8895;SDS011;4484;48.928;10.066;2023-07-02T09:52:28;14.52;;;8.50;;
8895;SDS011;4484;48.928;10.066;2023-07-02T09:54:55;15.15;;;8.25;;
8895;SDS011;4484;48.928;10.066;2023-07-02T09:57:22;14.65;;;8.63;;
8895;SDS011;4484;48.928;10.066;2023-07-02T09:59:49;15.05;;;8.77;;
8895;SDS011;4484;48.928;10.066;2023-07-02T10:02:16;17.50;;;9.10;;
8895;SDS011;4484;48.928;10.066;2023-07-02T10:04:44;14.77;;;8.73;;
8895;SDS011;4484;48.928;10.066;2023-07-02T10:07:13;14.73;;;8.35;;
8895;SDS011;4484;48.928;10.066;2023-07-02T10:09:52;15.43;;;8.50;;
8895;SDS011;4484;48.928;10.066;2023-07-02T10:12:23;15.38;;;8.48;;
8895;SDS011;4484;48.928;10.066;2023-07-02T10:14:51;17.55;;;8.52;;
8895;SDS011;4484;48.928;10.066;2023-07-02T10:19:59;13.23;;;8.35;;
8895;SDS011;4484;48.928;10.066;2023-07-02T10:22:27;15.90;;;8.55;;
8895;SDS011;4484;48.928;10.066;2023-07-02T10:24:55;14.85;;;8.40;;
8895;SDS011;4484;48.928;10.066;2023-07-02T10:27:32;13.13;;;8.55;;
8895;SDS011;4484;48.928;10.066;2023-07-02T10:30:02;14.10;;;8.77;;
8895;SDS011;4484;48.928;10.066;2023-07-02T10:32:30;14.02;;;8.88;;
8895;SDS011;4484;48.928;10.066;2023-07-02T10:34:57;19.75;;;8.80;;
8895;SDS011;4484;48.928;10.066;2023-07-02T10:37:26;11.25;;;8.23;;
8895;SDS011;4484;48.928;10.066;2023-07-02T10:39:53;15.40;;;8.35;;
8895;SDS011;4484;48.928;10.066;2023-07-02T10:42:20;12.63;;;7.97;;
8895;SDS011;4484;48.928;10.066;2023-07-02T10:44:49;13.23;;;8.40;;
8895;SDS011;4484;48.928;10.066;2023-07-02T10:47:17;12.48;;;7.68;;
8895;SDS011;4484;48.928;10.066;2023-07-02T10:49:45;15.20;;;8.32;;
8895;SDS011;4484;48.928;10.066;2023-07-02T10:52:12;14.30;;;8.57;;
8895;SDS011;4484;48.928;10.066;2023-07-02T10:54:42;17.55;;;9.43;;
8895;SDS011;4484;48.928;10.066;2023-07-02T10:57:12;14.77;;;9.38;;
8895;SDS011;4484;48.928;10.066;2023-07-02T10:59:42;11.63;;;8.38;;
8895;SDS011;4484;48.928;10.066;2023-07-02T11:02:09;13.35;;;8.85;;
8895;SDS011;4484;48.928;10.066;2023-07-02T11:04:36;12.18;;;8.63;;
8895;SDS011;4484;48.928;10.066;2023-07-02T11:07:04;12.27;;;8.23;;
8895;SDS011;4484;48.928;10.066;2023-07-02T11:09:31;13.27;;;8.80;;
8895;SDS011;4484;48.928;10.066;2023-07-02T11:12:00;15.65;;;9.15;;
8895;SDS011;4484;48.928;10.066;2023-07-02T11:17:05;18.08;;;8.95;;
8895;SDS011;4484;48.928;10.066;2023-07-02T11:19:33;15.75;;;9.77;;
8895;SDS011;4484;48.928;10.066;2023-07-02T11:22:01;16.13;;;8.63;;
8895;SDS011;4484;48.928;10.066;2023-07-02T11:24:33;18.65;;;9.27;;
8895;SDS011;4484;48.928;10.066;2023-07-02T11:27:00;17.08;;;9.23;;
8895;SDS011;4484;48.928;10.066;2023-07-02T11:29:29;13.00;;;8.88;;
8895;SDS011;4484;48.928;10.066;2023-07-02T11:32:06;16.67;;;9.70;;
8895;SDS011;4484;48.928;10.066;2023-07-02T11:34:37;15.23;;;9.23;;
8895;SDS011;4484;48.928;10.066;2023-07-02T11:37:05;13.90;;;8.82;;
8895;SDS011;4484;48.928;10.066;2023-07-02T11:39:32;17.13;;;9.40;;
8895;SDS011;4484;48.928;10.066;2023-07-02T11:41:59;16.27;;;9.57;;
8895;SDS011;4484;48.928;10.066;2023-07-02T11:44:26;14.70;;;9.60;;
8895;SDS011;4484;48.928;10.066;2023-07-02T11:46:53;13.60;;;8.98;;
8895;SDS011;4484;48.928;10.066;2023-07-02T11:49:20;13.43;;;9.50;;
8895;SDS011;4484;48.928;10.066;2023-07-02T11:51:46;16.67;;;9.23;;
8895;SDS011;4484;48.928;10.066;2023-07-02T11:54:15;14.13;;;9.88;;
8895;SDS011;4484;48.928;10.066;2023-07-02T11:56:42;16.67;;;10.25;;
8895;SDS011;4484;48.928;10.066;2023-07-02T11:59:09;16.33;;;9.32;;
8895;SDS011;4484;48.928;10.066;2023-07-02T12:01:37;11.95;;;8.63;;
8895;SDS011;4484;48.928;10.066;2023-07-02T12:04:04;14.02;;;9.68;;
8895;SDS011;4484;48.928;10.066;2023-07-02T12:06:32;15.65;;;9.80;;
8895;SDS011;4484;48.928;10.066;2023-07-02T12:08:58;12.65;;;8.63;;
8895;SDS011;4484;48.928;10.066;2023-07-02T12:11:25;17.70;;;9.93;;
8895;SDS011;4484;48.928;10.066;2023-07-02T12:13:52;16.85;;;9.45;;
8895;SDS011;4484;48.928;10.066;2023-07-02T12:16:19;15.93;;;9.75;;
8895;SDS011;4484;48.928;10.066;2023-07-02T12:18:46;18.02;;;9.63;;
8895;SDS011;4484;48.928;10.066;2023-07-02T12:21:13;14.45;;;9.93;;
8895;SDS011;4484;48.928;10.066;2023-07-02T12:23:40;15.15;;;9.45;;
8895;SDS011;4484;48.928;10.066;2023-07-02T12:26:07;14.80;;;10.05;;
8895;SDS011;4484;48.928;10.066;2023-07-02T12:28:34;16.25;;;10.20;;
8895;SDS011;4484;48.928;10.066;2023-07-02T12:31:01;17.00;;;10.30;;
8895;SDS011;4484;48.928;10.066;2023-07-02T12:33:29;15.82;;;10.20;;
8895;SDS011;4484;48.928;10.066;2023-07-02T12:35:56;14.07;;;9.15;;
8895;SDS011;4484;48.928;10.066;2023-07-02T12:38:23;13.95;;;9.10;;
8895;SDS011;4484;48.928;10.066;2023-07-02T12:40:49;14.90;;;9.90;;
8895;SDS011;4484;48.928;10.066;2023-07-02T12:43:17;19.63;;;9.98;;
8895;SDS011;4484;48.928;10.066;2023-07-02T12:45:43;16.08;;;10.13;;
8895;SDS011;4484;48.928;10.066;2023-07-02T12:48:10;15.20;;;10.40;;
8895;SDS011;4484;48.928;10.066;2023-07-02T12:50:37;14.07;;;10.00;;
8895;SDS011;4484;48.928;10.066;2023-07-02T12:53:05;14.98;;;9.73;;
8895;SDS011;4484;48.928;10.066;2023-07-02T12:55:32;13.60;;;9.18;;
8895;SDS011;4484;48.928;10.066;2023-07-02T12:57:59;15.15;;;10.00;;
8895;SDS011;4484;48.928;10.066;2023-07-02T13:00:26;16.95;;;9.93;;
8895;SDS011;4484;48.928;10.066;2023-07-02T13:02:53;16.50;;;9.32;;
8895;SDS011;4484;48.928;10.066;2023-07-02T13:05:31;13.40;;;9.50;;
8895;SDS011;4484;48.928;10.066;2023-07-02T13:07:58;22.98;;;9.90;;
8895;SDS011;4484;48.928;10.066;2023-07-02T13:10:25;16.83;;;10.05;;
8895;SDS011;4484;48.928;10.066;2023-07-02T13:12:51;19.45;;;10.32;;
8895;SDS011;4484;48.928;10.066;2023-07-02T13:15:18;18.15;;;9.77;;
8895;SDS011;4484;48.928;10.066;2023-07-02T13:17:46;14.07;;;10.00;;
8895;SDS011;4484;48.928;10.066;2023-07-02T13:20:13;15.40;;;9.52;;
8895;SDS011;4484;48.928;10.066;2023-07-02T13:22:40;13.23;;;9.10;;
8895;SDS011;4484;48.928;10.066;2023-07-02T13:25:07;14.35;;;9.60;;
8895;SDS011;4484;48.928;10.066;2023-07-02T13:27:34;13.57;;;9.30;;
8895;SDS011;4484;48.928;10.066;2023-07-02T13:30:01;13.15;;;9.05;;
8895;SDS011;4484;48.928;10.066;2023-07-02T13:32:28;14.90;;;9.15;;
8895;SDS011;4484;48.928;10.066;2023-07-02T13:34:57;12.68;;;9.02;;
8895;SDS011;4484;48.928;10.066;2023-07-02T13:37:24;16.35;;;9.95;;
8895;SDS011;4484;48.928;10.066;2023-07-02T13:39:51;14.27;;;9.50;;
8895;SDS011;4484;48.928;10.066;2023-07-02T13:42:18;13.57;;;9.65;;
8895;SDS011;4484;48.928;10.066;2023-07-02T13:44:45;15.88;;;9.55;;
8895;SDS011;4484;48.928;10.066;2023-07-02T13:47:12;15.50;;;9.00;;
8895;SDS011;4484;48.928;10.066;2023-07-02T13:49:39;14.90;;;9.68;;
8895;SDS011;4484;48.928;10.066;2023-07-02T13:52:06;15.30;;;9.50;;
8895;SDS011;4484;48.928;10.066;2023-07-02T13:54:33;14.52;;;10.13;;
8895;SDS011;4484;48.928;10.066;2023-07-02T13:57:03;14.10;;;9.30;;
8895;SDS011;4484;48.928;10.066;2023-07-02T13:59:30;17.30;;;9.98;;
8895;SDS011;4484;48.928;10.066;2023-07-02T14:01:57;13.70;;;9.50;;
8895;SDS011;4484;48.928;10.066;2023-07-02T14:04:24;15.05;;;9.02;;
8895;SDS011;4484;48.928;10.066;2023-07-02T14:06:51;15.38;;;9.60;;
8895;SDS011;4484;48.928;10.066;2023-07-02T14:09:17;16.08;;;10.10;;
8895;SDS011;4484;48.928;10.066;2023-07-02T14:11:44;17.42;;;10.18;;
8895;SDS011;4484;48.928;10.066;2023-07-02T14:14:11;16.13;;;9.50;;
8895;SDS011;4484;48.928;10.066;2023-07-02T14:16:38;15.50;;;9.90;;
8895;SDS011;4484;48.928;10.066;2023-07-02T14:19:05;15.32;;;10.20;;
8895;SDS011;4484;48.928;10.066;2023-07-02T14:21:32;17.98;;;10.63;;
8895;SDS011;4484;48.928;10.066;2023-07-02T14:23:59;16.23;;;10.65;;
8895;SDS011;4484;48.928;10.066;2023-07-02T14:26:26;15.23;;;9.95;;
8895;SDS011;4484;48.928;10.066;2023-07-02T14:28:53;14.80;;;9.15;;
8895;SDS011;4484;48.928;10.066;2023-07-02T14:31:20;14.07;;;10.50;;
8895;SDS011;4484;48.928;10.066;2023-07-02T14:33:48;17.40;;;10.40;;
8895;SDS011;4484;48.928;10.066;2023-07-02T14:36:15;18.58;;;11.10;;
8895;SDS011;4484;48.928;10.066;2023-07-02T14:38:42;16.10;;;10.02;;
8895;SDS011;4484;48.928;10.066;2023-07-02T14:41:09;12.85;;;9.13;;
8895;SDS011;4484;48.928;10.066;2023-07-02T14:43:37;12.90;;;9.60;;
8895;SDS011;4484;48.928;10.066;2023-07-02T14:46:04;15.02;;;10.85;;
8895;SDS011;4484;48.928;10.066;2023-07-02T14:48:31;14.02;;;10.70;;
8895;SDS011;4484;48.928;10.066;2023-07-02T14:50:58;16.30;;;10.27;;
8895;SDS011;4484;48.928;10.066;2023-07-02T14:53:27;12.23;;;9.48;;
8895;SDS011;4484;48.928;10.066;2023-07-02T14:55:56;18.13;;;10.73;;
8895;SDS011;4484;48.928;10.066;2023-07-02T14:58:25;13.73;;;10.52;;
8895;SDS011;4484;48.928;10.066;2023-07-02T15:00:54;13.32;;;10.00;;